Terminal Aerodrome Forecast
Issued by NWS

Home | Current Version | Previous Version | Graphics & Text | Print | Product List | Glossary On
Versions: 1 2 3 4 5 6 7 8 9 10 11
000
FTUS43 KIWX 242300
TAFSBN
TAF
KSBN 242332Z 2500/2524 28010KT P6SM -RA OVC007
     FM250600 25013KT P6SM OVC012
     FM251300 22010KT P6SM OVC015=

USA.gov is the U.S. government's official web portal to all federal, state and local government web resources and services.